Bayou Goula, Louisiana
Current Conditions -  °F | °C
As of 5:15 PM on Sunday 21 Dec 2014 (Local Time) from KL38 Reporting Station
Clear Clear  
Wind Chill: 55°   Ceiling: Unl
Heat Index: 55°   Visibility: 10mi
Dew Point: 55°   Wind: 0mph
Humidity: 99%   Direction: NA
Pressure: 29.99"   Gusts: NA
Location:  30.21°N, 91.17°W
Report Text: KL38 212315Z AUTO 00000KT 10SM CLR 13/13 A2999 RMK AO2 T01290127
Loading
Personal Weather Stations






























Interactive Weather Map New forecast layout! Learn more

10-Day Weather Forecast

Advertisements
Track Severe Weather on mobile